createdAt,value
2023-04-09T00:00:12.652Z,70.39
2023-04-09T00:03:36.676Z,70.41
2023-04-09T00:06:39.717Z,70.43
2023-04-09T00:09:42.691Z,70.38
2023-04-09T00:12:45.943Z,70.41
2023-04-09T00:15:48.990Z,70.39
2023-04-09T00:18:52.403Z,70.38
2023-04-09T00:21:56.121Z,70.52
2023-04-09T00:24:59.198Z,70.43
2023-04-09T00:28:02.771Z,70.42
2023-04-09T00:31:06.044Z,70.45
2023-04-09T00:34:09.052Z,70.45
2023-04-09T00:37:13.295Z,70.49
2023-04-09T00:40:16.315Z,70.54
2023-04-09T00:43:19.481Z,70.53
2023-04-09T00:46:22.541Z,70.45
2023-04-09T00:49:26.567Z,70.48
2023-04-09T00:52:31.083Z,70.42
2023-04-09T00:55:34.406Z,70.42
2023-04-09T00:58:37.425Z,70.37
2023-04-09T01:01:40.664Z,70.44
2023-04-09T01:04:44.666Z,70.38
2023-04-09T01:08:08.778Z,70.30
2023-04-09T01:11:21.998Z,70.24
2023-04-09T01:14:36.052Z,70.31
2023-04-09T01:18:03.684Z,70.41
2023-04-09T01:21:16.388Z,70.40
2023-04-09T01:24:37.113Z,70.52
2023-04-09T01:27:55.095Z,70.56
2023-04-09T01:31:03.056Z,70.52
2023-04-09T01:34:08.840Z,70.50
2023-04-09T01:37:13.300Z,70.44
2023-04-09T01:40:16.756Z,70.60
2023-04-09T01:43:20.583Z,70.52
2023-04-09T01:46:25.478Z,70.60
2023-04-09T01:49:29.008Z,70.65
2023-04-09T01:52:32.292Z,70.63
2023-04-09T01:55:35.484Z,70.65
2023-04-09T01:58:39.070Z,70.62
2023-04-09T02:02:09.194Z,70.62
2023-04-09T02:05:14.262Z,70.70
2023-04-09T02:08:20.656Z,70.75
2023-04-09T02:11:24.015Z,70.73
2023-04-09T02:14:28.489Z,70.81
2023-04-09T02:17:31.557Z,70.69
2023-04-09T02:20:34.755Z,70.76
2023-04-09T02:23:37.756Z,70.69
2023-04-09T02:26:41.152Z,70.73
2023-04-09T02:29:44.303Z,70.90
2023-04-09T02:32:48.517Z,70.92
2023-04-09T02:35:51.760Z,70.97
2023-04-09T02:38:55.623Z,70.91
2023-04-09T02:41:58.742Z,70.89
2023-04-09T02:45:02.584Z,70.90
2023-04-09T02:48:07.411Z,70.84
2023-04-09T02:51:11.475Z,70.90
2023-04-09T02:54:14.591Z,70.84
2023-04-09T02:57:17.804Z,70.86
2023-04-09T03:00:20.870Z,70.82
2023-04-09T03:03:23.986Z,70.94
2023-04-09T03:06:27.166Z,70.89
2023-04-09T03:09:30.891Z,70.85
2023-04-09T03:12:33.879Z,70.84
2023-04-09T03:15:36.845Z,70.77
2023-04-09T03:18:39.902Z,70.88
2023-04-09T03:21:42.999Z,70.77
2023-04-09T03:24:46.664Z,70.84
2023-04-09T03:27:50.057Z,70.85
2023-04-09T03:30:58.692Z,70.87
2023-04-09T03:34:02.543Z,70.88
2023-04-09T03:37:06.785Z,70.87
2023-04-09T03:40:10.678Z,70.80
2023-04-09T03:43:13.836Z,70.74
2023-04-09T03:46:20.982Z,70.70
2023-04-09T03:49:24.668Z,70.60
2023-04-09T03:52:28.597Z,70.63
2023-04-09T03:55:37.952Z,70.66
2023-04-09T03:58:43.281Z,70.51
2023-04-09T04:01:48.243Z,70.51
2023-04-09T04:04:52.770Z,70.43
2023-04-09T04:07:56.712Z,70.39
2023-04-09T04:11:05.032Z,70.35
2023-04-09T04:14:08.334Z,70.31
2023-04-09T04:17:11.887Z,70.16
2023-04-09T04:20:15.396Z,70.17
2023-04-09T04:23:29.139Z,70.14
2023-04-09T04:26:37.772Z,69.99
2023-04-09T04:29:40.976Z,69.91
2023-04-09T04:32:57.309Z,69.90
2023-04-09T04:36:06.538Z,69.87
2023-04-09T04:39:22.565Z,69.92
2023-04-09T04:42:30.334Z,69.92
2023-04-09T04:45:34.526Z,69.94
2023-04-09T04:48:43.463Z,70.03
2023-04-09T04:51:46.651Z,70.10
2023-04-09T04:54:51.079Z,70.16
2023-04-09T04:57:57.401Z,70.18
2023-04-09T05:01:02.627Z,70.35
2023-04-09T05:04:06.196Z,70.28
2023-04-09T05:07:11.109Z,70.34
2023-04-09T05:10:18.468Z,70.40
2023-04-09T05:13:22.828Z,70.47
2023-04-09T05:16:27.193Z,70.63
2023-04-09T05:19:37.048Z,70.67
2023-04-09T05:22:40.203Z,70.89
2023-04-09T05:25:43.762Z,70.91
2023-04-09T05:28:53.522Z,70.95
2023-04-09T05:31:58.169Z,71.20
2023-04-09T05:35:05.816Z,71.20
2023-04-09T05:38:10.781Z,71.34
2023-04-09T05:41:15.082Z,71.38
2023-04-09T05:44:27.752Z,71.42
2023-04-09T05:47:36.615Z,71.40
2023-04-09T05:50:55.058Z,71.38
2023-04-09T05:53:59.759Z,71.40
2023-04-09T05:57:06.786Z,71.48
2023-04-09T06:00:13.484Z,71.47
2023-04-09T06:03:23.925Z,71.47
2023-04-09T06:06:27.176Z,71.48
2023-04-09T06:09:30.312Z,71.57
2023-04-09T06:12:35.398Z,71.58
2023-04-09T06:15:39.632Z,71.57
2023-04-09T06:18:42.708Z,71.60
2023-04-09T06:21:45.791Z,71.61
2023-04-09T06:24:48.851Z,71.68
2023-04-09T06:27:52.210Z,71.82
2023-04-09T06:30:55.485Z,71.78
2023-04-09T06:33:58.554Z,71.89
2023-04-09T06:37:01.694Z,71.87
2023-04-09T06:40:05.008Z,71.84
2023-04-09T06:43:08.288Z,71.87
2023-04-09T06:46:21.302Z,71.92
2023-04-09T06:49:24.420Z,72.03
2023-04-09T06:52:27.561Z,72.08
2023-04-09T06:55:30.851Z,72.05
2023-04-09T06:58:34.024Z,71.97
2023-04-09T07:01:37.909Z,72.01
2023-04-09T07:04:41.568Z,72.10
2023-04-09T07:07:44.792Z,72.16
2023-04-09T07:10:47.793Z,72.22
2023-04-09T07:13:51.391Z,72.12
2023-04-09T07:16:54.600Z,72.20
2023-04-09T07:19:57.697Z,72.16
2023-04-09T07:23:01.072Z,72.28
2023-04-09T07:26:05.390Z,72.28
2023-04-09T07:29:08.368Z,72.25
2023-04-09T07:32:11.611Z,72.21
2023-04-09T07:35:14.765Z,72.26
2023-04-09T07:38:17.752Z,72.32
2023-04-09T07:41:20.970Z,72.28
2023-04-09T07:44:24.630Z,72.36
2023-04-09T07:47:28.592Z,72.44
2023-04-09T07:50:31.654Z,72.42
2023-04-09T07:53:34.961Z,72.44
2023-04-09T07:56:38.110Z,72.38
2023-04-09T07:59:41.169Z,72.34
2023-04-09T08:02:44.566Z,72.28
2023-04-09T08:05:47.886Z,72.34
2023-04-09T08:08:51.159Z,72.26
2023-04-09T08:11:54.377Z,72.34
2023-04-09T08:14:57.356Z,72.31
2023-04-09T08:18:02.308Z,72.32
2023-04-09T08:21:06.248Z,72.27
2023-04-09T08:24:12.601Z,72.33
2023-04-09T08:27:16.118Z,72.38
2023-04-09T08:30:19.213Z,72.30
2023-04-09T08:33:22.340Z,72.26
2023-04-09T08:36:26.411Z,72.23
2023-04-09T08:39:29.650Z,72.17
2023-04-09T08:42:35.708Z,72.26
2023-04-09T08:45:41.507Z,72.24
2023-04-09T08:48:48.830Z,72.31
2023-04-09T08:51:51.913Z,72.33
2023-04-09T08:54:54.988Z,72.34
2023-04-09T08:57:58.361Z,72.35
2023-04-09T09:01:01.905Z,72.32
2023-04-09T09:04:10.001Z,72.12
2023-04-09T09:07:13.500Z,71.97
2023-04-09T09:10:17.412Z,71.94
2023-04-09T09:13:24.360Z,71.90
2023-04-09T09:16:27.827Z,71.71
2023-04-09T09:19:36.476Z,71.81
2023-04-09T09:22:56.017Z,71.67
2023-04-09T09:25:59.531Z,71.75
2023-04-09T09:29:04.158Z,71.61
2023-04-09T09:32:14.249Z,71.54
2023-04-09T09:35:17.304Z,71.42
2023-04-09T09:38:21.008Z,71.40
2023-04-09T09:41:24.962Z,71.42
2023-04-09T09:44:32.889Z,71.41
2023-04-09T09:47:37.559Z,71.24
2023-04-09T09:50:44.453Z,71.21
2023-04-09T09:53:52.361Z,71.03
2023-04-09T09:56:59.921Z,70.82
2023-04-09T10:00:04.576Z,70.69
2023-04-09T10:03:20.046Z,70.34
2023-04-09T10:06:24.166Z,70.29
2023-04-09T10:09:28.211Z,70.13
2023-04-09T10:12:32.862Z,70.25
2023-04-09T10:15:36.490Z,70.13
2023-04-09T10:18:40.799Z,70.16
2023-04-09T10:21:54.806Z,70.01
2023-04-09T10:24:59.951Z,69.86
2023-04-09T10:28:14.778Z,69.69
2023-04-09T10:31:20.780Z,69.74
2023-04-09T10:34:27.472Z,69.61
2023-04-09T10:37:31.860Z,69.42
2023-04-09T10:41:16.381Z,69.25
2023-04-09T10:44:24.606Z,69.11
2023-04-09T10:47:36.620Z,69.14
2023-04-09T10:50:43.063Z,69.14
2023-04-09T10:53:46.354Z,69.12
2023-04-09T10:57:07.594Z,69.05
2023-04-09T11:00:11.464Z,69.08
2023-04-09T11:03:30.808Z,68.96
2023-04-09T11:06:37.359Z,68.99
2023-04-09T11:09:42.444Z,69.07
2023-04-09T11:12:49.482Z,69.08
2023-04-09T11:15:52.861Z,69.06
2023-04-09T11:18:57.391Z,69.07
2023-04-09T11:22:00.436Z,69.04
2023-04-09T11:25:03.695Z,69.02
2023-04-09T11:28:08.182Z,68.86
2023-04-09T11:31:11.309Z,68.73
2023-04-09T11:34:14.452Z,68.74
2023-04-09T11:37:18.508Z,68.75
2023-04-09T11:40:23.622Z,68.66
2023-04-09T11:43:26.596Z,68.72
2023-04-09T11:46:32.732Z,68.66
2023-04-09T11:49:36.089Z,68.68
2023-04-09T11:52:40.270Z,68.64
2023-04-09T11:55:43.455Z,68.63
2023-04-09T11:58:47.904Z,68.54
2023-04-09T12:01:52.049Z,68.32
2023-04-09T12:04:55.602Z,68.47
2023-04-09T12:08:08.478Z,68.32
2023-04-09T12:11:13.079Z,68.31
2023-04-09T12:14:17.683Z,68.22
2023-04-09T12:17:21.268Z,68.22
2023-04-09T12:20:35.929Z,68.15
2023-04-09T12:23:38.991Z,68.36
2023-04-09T12:26:42.056Z,68.32
2023-04-09T12:29:45.078Z,68.29
2023-04-09T12:32:48.329Z,68.32
2023-04-09T12:35:51.724Z,68.33
2023-04-09T12:38:54.903Z,68.20
2023-04-09T12:41:57.953Z,68.17
2023-04-09T12:45:01.333Z,68.10
2023-04-09T12:48:04.487Z,67.91
2023-04-09T12:51:07.671Z,68.00
2023-04-09T12:54:11.083Z,67.87
2023-04-09T12:57:14.051Z,67.88
2023-04-09T13:00:17.143Z,67.73
2023-04-09T13:03:21.351Z,67.70
2023-04-09T13:06:24.479Z,67.79
2023-04-09T13:09:27.830Z,67.75
2023-04-09T13:12:31.425Z,67.69
2023-04-09T13:15:34.502Z,67.61
2023-04-09T13:18:37.515Z,67.54
2023-04-09T13:21:40.599Z,67.41
2023-04-09T13:24:43.655Z,67.31
2023-04-09T13:27:46.828Z,67.16
2023-04-09T13:30:49.944Z,66.95
2023-04-09T13:33:52.948Z,66.69
2023-04-09T13:36:56.360Z,66.65
2023-04-09T13:39:59.784Z,66.65
2023-04-09T13:43:02.894Z,66.68
2023-04-09T13:46:06.275Z,66.54
2023-04-09T13:49:09.254Z,66.32
2023-04-09T13:52:14.201Z,66.32
2023-04-09T13:55:17.303Z,66.07
2023-04-09T13:58:22.528Z,65.86
2023-04-09T14:01:27.522Z,65.53
2023-04-09T14:04:30.663Z,65.35
2023-04-09T14:07:33.792Z,65.44
2023-04-09T14:10:36.813Z,65.26
2023-04-09T14:13:39.862Z,65.27
2023-04-09T14:16:43.170Z,65.18
2023-04-09T14:19:46.215Z,65.09
2023-04-09T14:22:49.548Z,64.91
2023-04-09T14:25:53.468Z,64.76
2023-04-09T14:28:56.471Z,64.58
2023-04-09T14:32:01.030Z,64.41
2023-04-09T14:35:04.699Z,64.13
2023-04-09T14:38:10.032Z,63.90
2023-04-09T14:41:13.147Z,63.87
2023-04-09T14:44:16.256Z,64.06
2023-04-09T14:47:19.369Z,64.07
2023-04-09T14:50:22.415Z,63.98
2023-04-09T14:53:25.476Z,63.99
2023-04-09T14:56:28.436Z,64.05
2023-04-09T14:59:31.415Z,64.03
2023-04-09T15:02:35.433Z,63.96
2023-04-09T15:05:39.288Z,63.74
2023-04-09T15:08:42.248Z,63.63
2023-04-09T15:11:45.286Z,63.48
2023-04-09T15:14:48.308Z,63.47
2023-04-09T15:17:51.459Z,63.39
2023-04-09T15:20:54.485Z,63.41
2023-04-09T15:23:59.087Z,63.49
2023-04-09T15:27:02.120Z,63.41
2023-04-09T15:30:05.952Z,63.13
2023-04-09T15:33:08.972Z,63.10
2023-04-09T15:36:12.111Z,63.01
2023-04-09T15:39:15.232Z,63.05
2023-04-09T15:42:22.448Z,63.07
2023-04-09T15:45:26.259Z,63.29
2023-04-09T15:48:29.270Z,63.45
2023-04-09T15:51:32.422Z,63.64
2023-04-09T15:54:35.367Z,63.75
2023-04-09T15:57:38.751Z,63.84
2023-04-09T16:00:42.070Z,63.95
2023-04-09T16:03:50.582Z,64.14
2023-04-09T16:06:55.463Z,64.28
2023-04-09T16:10:00.707Z,64.36
2023-04-09T16:13:03.860Z,64.42
2023-04-09T16:16:07.319Z,64.61
2023-04-09T16:19:10.305Z,64.78
2023-04-09T16:22:13.392Z,64.82
2023-04-09T16:25:16.456Z,64.93
2023-04-09T16:28:21.962Z,65.04
2023-04-09T16:31:27.483Z,65.19
2023-04-09T16:34:32.150Z,65.31
2023-04-09T16:37:35.338Z,65.60
2023-04-09T16:40:38.299Z,65.81
2023-04-09T16:43:41.513Z,66.06
2023-04-09T16:46:47.662Z,66.17
2023-04-09T16:49:51.255Z,66.52
2023-04-09T16:52:56.763Z,66.68
2023-04-09T16:55:59.816Z,66.82
2023-04-09T16:59:05.158Z,66.98
2023-04-09T17:02:08.973Z,67.11
2023-04-09T17:05:12.330Z,67.33
2023-04-09T17:08:17.226Z,67.61
2023-04-09T17:11:21.437Z,67.66
2023-04-09T17:14:24.509Z,67.74
2023-04-09T17:17:29.162Z,67.73
2023-04-09T17:20:32.313Z,67.69
2023-04-09T17:23:36.281Z,67.79
2023-04-09T17:26:43.732Z,68.03
2023-04-09T17:29:46.886Z,68.00
2023-04-09T17:32:51.163Z,68.19
2023-04-09T17:35:54.399Z,68.24
2023-04-09T17:38:57.964Z,68.34
2023-04-09T17:42:03.391Z,68.42
2023-04-09T17:45:07.488Z,68.38
2023-04-09T17:48:10.880Z,68.42
2023-04-09T17:51:16.438Z,68.64
2023-04-09T17:54:19.495Z,68.74
2023-04-09T17:57:22.467Z,68.81
2023-04-09T18:00:25.808Z,68.78
2023-04-09T18:03:28.903Z,68.83
2023-04-09T18:06:32.171Z,69.00
2023-04-09T18:09:35.170Z,68.88
2023-04-09T18:12:38.216Z,68.90
2023-04-09T18:15:41.531Z,68.91
2023-04-09T18:18:44.557Z,68.83
2023-04-09T18:21:47.521Z,68.80
2023-04-09T18:24:52.022Z,68.65
2023-04-09T18:27:54.972Z,68.54
2023-04-09T18:30:58.880Z,68.72
2023-04-09T18:34:02.183Z,68.74
2023-04-09T18:37:05.332Z,68.81
2023-04-09T18:40:15.946Z,68.88
2023-04-09T18:43:18.915Z,68.94
2023-04-09T18:46:22.918Z,69.08
2023-04-09T18:49:27.024Z,69.24
2023-04-09T18:52:29.985Z,69.32
2023-04-09T18:55:35.882Z,69.45
2023-04-09T18:58:38.949Z,69.40
2023-04-09T19:01:42.383Z,69.44
2023-04-09T19:04:45.821Z,69.37
2023-04-09T19:07:48.914Z,69.35
2023-04-09T19:10:53.602Z,69.38
2023-04-09T19:13:56.724Z,69.37
2023-04-09T19:16:59.849Z,69.40
2023-04-09T19:20:03.017Z,69.43
2023-04-09T19:23:06.709Z,69.38
2023-04-09T19:26:09.755Z,69.44
2023-04-09T19:29:12.764Z,69.44
2023-04-09T19:32:16.250Z,69.48
2023-04-09T19:35:19.276Z,69.46
2023-04-09T19:38:22.416Z,69.54
2023-04-09T19:41:25.389Z,69.63
2023-04-09T19:44:28.415Z,69.68
2023-04-09T19:47:31.765Z,69.74
2023-04-09T19:50:39.017Z,69.80
2023-04-09T19:53:43.539Z,69.88
2023-04-09T19:56:47.548Z,69.93
2023-04-09T19:59:52.245Z,70.02
2023-04-09T20:02:55.835Z,70.08
2023-04-09T20:05:59.165Z,70.14
2023-04-09T20:09:02.216Z,70.13
2023-04-09T20:12:07.035Z,70.10
2023-04-09T20:15:10.495Z,70.18
2023-04-09T20:18:13.502Z,70.27
2023-04-09T20:21:16.527Z,70.33
2023-04-09T20:24:19.573Z,70.26
2023-04-09T20:27:22.669Z,70.29
2023-04-09T20:30:25.936Z,70.34
2023-04-09T20:33:28.941Z,70.30
2023-04-09T20:36:32.421Z,70.42
2023-04-09T20:39:35.439Z,70.39
2023-04-09T20:42:40.470Z,70.34
2023-04-09T20:45:43.494Z,70.38
2023-04-09T20:48:46.554Z,70.46
2023-04-09T20:51:50.048Z,70.46
2023-04-09T20:54:53.408Z,70.39
2023-04-09T20:57:57.040Z,70.45
2023-04-09T21:01:07.795Z,70.47
2023-04-09T21:04:11.364Z,70.53
2023-04-09T21:07:14.697Z,70.53
2023-04-09T21:10:17.916Z,70.52
2023-04-09T21:13:21.054Z,70.55
2023-04-09T21:16:26.073Z,70.55
2023-04-09T21:19:29.158Z,70.52
2023-04-09T21:22:32.114Z,70.58
2023-04-09T21:25:35.162Z,70.56
2023-04-09T21:28:38.214Z,70.63
2023-04-09T21:31:41.831Z,70.69
2023-04-09T21:34:44.804Z,70.68
2023-04-09T21:37:48.223Z,70.69
2023-04-09T21:40:51.309Z,70.75
2023-04-09T21:43:54.385Z,70.77
2023-04-09T21:46:57.476Z,70.72
2023-04-09T21:50:00.628Z,70.73
2023-04-09T21:53:03.636Z,70.81
2023-04-09T21:56:07.025Z,70.72
2023-04-09T21:59:09.940Z,70.80
2023-04-09T22:02:13.100Z,70.83
2023-04-09T22:05:16.349Z,70.87
2023-04-09T22:08:19.342Z,70.83
2023-04-09T22:11:28.149Z,70.86
2023-04-09T22:14:33.840Z,70.91
2023-04-09T22:17:36.845Z,70.96
2023-04-09T22:20:39.941Z,70.88
2023-04-09T22:23:43.752Z,70.98
2023-04-09T22:26:47.044Z,70.88
2023-04-09T22:29:50.311Z,70.94
2023-04-09T22:32:53.338Z,70.98
2023-04-09T22:35:56.661Z,70.95
2023-04-09T22:38:59.664Z,71.01
2023-04-09T22:42:03.080Z,70.98
2023-04-09T22:45:06.656Z,70.99
2023-04-09T22:48:09.738Z,70.99
2023-04-09T22:51:14.147Z,70.91
2023-04-09T22:54:17.265Z,70.93
2023-04-09T22:57:20.460Z,71.02
2023-04-09T23:00:23.555Z,71.07
2023-04-09T23:03:26.719Z,70.99
2023-04-09T23:06:30.999Z,71.05
2023-04-09T23:09:34.077Z,71.05
2023-04-09T23:12:37.160Z,71.05
2023-04-09T23:15:41.329Z,71.06
2023-04-09T23:18:44.457Z,70.97
2023-04-09T23:21:47.400Z,71.00
2023-04-09T23:24:50.613Z,71.00
2023-04-09T23:27:53.617Z,71.14
2023-04-09T23:30:56.914Z,71.10
2023-04-09T23:33:59.876Z,71.15
2023-04-09T23:37:02.898Z,71.11
2023-04-09T23:40:07.213Z,71.25
2023-04-09T23:43:10.242Z,71.14
2023-04-09T23:46:13.211Z,71.22
2023-04-09T23:49:16.268Z,71.19
2023-04-09T23:52:19.231Z,71.25
2023-04-09T23:55:22.303Z,71.28
2023-04-09T23:58:25.479Z,71.29
